ΕΜΥ, Εθνική Μετεωρολογική Υπηρεσία - Δελτία Καιρού, Προγνώσεις

ΑΕΡΟΝΑΥΤΙΛΙΑ

GREEK AIRPORTS CODES

TAF LGKL 081700Z 0818/0903 VRB03KT 9999 SCT020 BKN080 PROB30 TEMPO 0818/0822 5000 RA=

EUROPEAN AIRPORTS CODES

EDDB 081820Z 07006KT CAVOK 00/M08 Q1023 NOSIG=